Time;durP1;ratioP1;P1;durP2;ratioP2;P2;SDS_P1;SDS_P2;PMS_P1;PMS_P2;Temp;Humidity;BMP_temperature;BMP_pressure;BME280_temperature;BME280_humidity;BME280_pressure;Samples;Min_cycle;Max_cycle;Signal;HPM_P1;HPM_P2
2023/01/10 00:00:33;;;;;;;3.00;1.60;;;;;;;19.83;53.76;96012.38;10624750;27;20047;-53
2023/01/10 00:06:00;;;;;;;2.20;1.17;;;;;;;19.81;53.66;96014.63;10624044;27;20050;-53
2023/01/10 00:16:58;;;;;;;3.65;1.60;;;;;;;19.78;53.64;96021.53;10623453;27;20099;-53
2023/01/10 00:22:20;;;;;;;3.67;1.48;;;;;;;19.77;53.58;96022.66;10624045;27;20107;-53
2023/01/10 00:27:39;;;;;;;3.35;1.27;;;;;;;19.74;53.68;96020.66;10623235;27;20559;-51
2023/01/10 00:32:59;;;;;;;2.47;1.40;;;;;;;19.74;53.62;96026.06;10623957;28;20055;-53
2023/01/10 00:38:18;;;;;;;2.45;1.33;;;;;;;19.71;53.60;96038.31;10623848;28;20055;-53
2023/01/10 00:43:56;;;;;;;2.13;1.33;;;;;;;19.71;53.57;96041.00;10623471;28;20059;-53
2023/01/10 00:49:16;;;;;;;2.38;1.35;;;;;;;19.69;53.60;96028.94;10623029;28;20047;-53
2023/01/10 00:54:35;;;;;;;3.22;1.38;;;;;;;19.68;53.62;96040.88;10622978;28;20502;-53
2023/01/10 00:59:55;;;;;;;2.60;1.50;;;;;;;-146.19;100.00;65364.44;10622912;28;20384;-52
2023/01/10 01:05:14;;;;;;;2.65;1.30;;;;;;;19.64;53.65;96065.13;10623323;28;20058;-53
2023/01/10 01:10:34;;;;;;;1.90;1.30;;;;;;;19.63;53.60;96077.03;10623286;28;20071;-54
2023/01/10 01:15:57;;;;;;;2.03;1.30;;;;;;;19.62;53.54;96090.88;10623206;28;20476;-53
2023/01/10 01:21:16;;;;;;;2.00;1.10;;;;;;;19.61;53.49;96097.44;10623210;28;20142;-53
2023/01/10 01:26:36;;;;;;;2.65;1.33;;;;;;;19.59;53.55;96105.09;10636571;27;20039;-53
2023/01/10 01:31:56;;;;;;;1.92;1.02;;;;;;;19.57;53.52;96118.94;10642834;27;20039;-54
2023/01/10 01:37:18;;;;;;;3.15;1.20;;;;;;;19.55;53.59;96121.97;10630463;27;20074;-53
2023/01/10 01:42:38;;;;;;;1.38;1.10;;;;;;;19.54;53.64;96131.22;10630273;27;20093;-53
2023/01/10 01:48:00;;;;;;;4.13;1.70;;;;;;;19.54;53.54;96141.22;10630136;27;20073;-53
2023/01/10 01:53:30;;;;;;;1.83;1.02;;;;;;;19.51;53.59;96142.69;10630051;27;20078;-52
2023/01/10 01:58:56;;;;;;;2.05;1.10;;;;;;;19.50;53.40;96154.66;10614421;27;20085;-53
2023/01/10 02:04:26;;;;;;;2.92;1.15;;;;;;;19.49;53.48;96157.69;10629322;27;20047;-53
2023/01/10 02:10:04;;;;;;;2.03;1.08;;;;;;;19.48;53.38;96178.50;10628656;27;20047;-53
2023/01/10 02:15:23;;;;;;;3.00;1.30;;;;;;;19.46;53.39;96188.84;10613662;27;20051;-53
2023/01/10 02:21:01;;;;;;;1.00;0.80;;;;;;;19.44;53.38;96179.50;10628415;27;20066;-53
2023/01/10 02:26:23;;;;;;;1.67;1.10;;;;;;;19.43;53.48;96189.53;10642414;27;20042;-52
2023/01/10 02:32:19;;;;;;;1.42;1.02;;;;;;;19.41;53.47;96191.78;10628112;27;20059;-53
2023/01/10 02:38:06;;;;;;;1.92;1.00;;;;;;;19.39;53.43;96199.44;10626309;27;20039;-51
2023/01/10 02:43:31;;;;;;;1.33;0.98;;;;;;;19.39;53.41;96209.47;10637358;27;20515;-53
2023/01/10 02:48:51;;;;;;;1.80;1.10;;;;;;;19.36;53.33;96213.59;10627118;27;20047;-53
2023/01/10 02:54:21;;;;;;;1.40;1.10;;;;;;;19.34;53.38;96223.94;10626905;27;20545;-53
2023/01/10 03:00:00;;;;;;;1.40;1.00;;;;;;;19.33;53.40;96233.19;10611507;27;20046;-51
2023/01/10 03:05:43;;;;;;;1.83;1.10;;;;;;;19.31;53.34;96246.25;10626825;27;20104;-53
2023/01/10 03:11:08;;;;;;;1.15;0.75;;;;;;;-146.19;100.00;65364.44;10622554;27;20043;-52
2023/01/10 03:16:29;;;;;;;1.13;0.80;;;;;;;-146.19;100.00;65364.44;10624875;27;20057;-53
2023/01/10 03:21:53;;;;;;;2.42;0.98;;;;;;;-146.19;100.00;65364.44;10639970;27;20498;-53
2023/01/10 03:27:41;;;;;;;1.95;1.00;;;;;;;-146.19;100.00;65364.44;10610208;27;20055;-53
2023/01/10 03:33:01;;;;;;;1.45;0.90;;;;;;;-146.19;100.00;65364.44;10625252;27;20544;-53
2023/01/10 03:38:31;;;;;;;1.30;0.90;;;;;;;-146.19;100.00;65364.44;10610421;27;20060;-51
2023/01/10 03:49:36;;;;;;;2.80;1.10;;;;;;;-146.19;100.00;65364.44;10626312;27;20092;-53
2023/01/10 03:54:57;;;;;;;1.35;1.15;;;;;;;-146.19;100.00;65364.44;10609434;27;20073;-53
2023/01/10 04:00:17;;;;;;;1.08;0.68;;;;;;;-146.19;100.00;65364.44;10625025;27;20433;-52
2023/01/10 04:05:37;;;;;;;1.52;0.90;;;;;;;-146.19;100.00;65364.44;10624863;27;20051;-53
2023/01/10 04:10:57;;;;;;;1.10;0.70;;;;;;;-146.19;100.00;65364.44;10638231;27;20043;-53
2023/01/10 04:16:16;;;;;;;1.05;0.70;;;;;;;-146.19;100.00;65364.44;10624238;27;20051;-53
2023/01/10 04:21:35;;;;;;;1.30;0.85;;;;;;;-146.19;100.00;65364.44;10624198;27;20047;-53
2023/01/10 04:26:55;;;;;;;1.40;0.90;;;;;;;-146.19;100.00;65364.44;10624132;27;20073;-52
2023/01/10 04:32:14;;;;;;;1.23;0.80;;;;;;;-146.19;100.00;65364.44;10637765;27;20050;-53
2023/01/10 04:37:33;;;;;;;1.00;0.70;;;;;;;-146.19;100.00;65364.44;10623978;28;20047;-52
2023/01/10 04:42:53;;;;;;;1.10;0.80;;;;;;;-146.19;100.00;65364.44;10635765;27;20069;-53
2023/01/10 04:48:13;;;;;;;1.35;0.73;;;;;;;19.05;53.19;96422.00;10623700;28;20043;-52
2023/01/10 04:53:32;;;;;;;1.50;0.88;;;;;;;19.04;53.25;96432.00;10623726;28;20058;-53
2023/01/10 04:58:51;;;;;;;0.65;0.55;;;;;;;19.02;53.30;96441.56;10623505;28;20069;-53
2023/01/10 05:04:11;;;;;;;0.88;0.60;;;;;;;19.01;53.30;96448.06;10639345;27;20077;-53
2023/01/10 05:09:30;;;;;;;1.10;0.77;;;;;;;19.00;53.26;96468.09;10631674;27;20051;-52
2023/01/10 05:14:50;;;;;;;1.33;0.70;;;;;;;18.99;53.21;96469.22;10630919;27;20069;-54
2023/01/10 05:20:12;;;;;;;0.65;0.63;;;;;;;18.96;53.21;96474.16;10614802;27;20061;-53
2023/01/10 05:25:32;;;;;;;1.85;0.80;;;;;;;18.97;53.55;96488.44;10645073;27;20035;-54
2023/01/10 05:30:51;;;;;;;2.35;0.70;;;;;;;18.97;53.65;96501.94;10644421;27;20035;-52
2023/01/10 05:36:10;;;;;;;0.82;0.70;;;;;;;18.98;53.74;96514.31;10630562;27;20080;-52
2023/01/10 05:41:29;;;;;;;0.55;0.52;;;;;;;18.98;54.04;96527.03;10630348;27;20047;-53
2023/01/10 05:46:49;;;;;;;1.00;0.70;;;;;;;18.99;53.96;96542.88;10629233;27;20082;-53
2023/01/10 05:52:09;;;;;;;1.42;0.88;;;;;;;18.99;53.97;96545.59;10629968;27;20065;-52
2023/01/10 05:57:28;;;;;;;2.28;0.70;;;;;;;19.00;54.34;96557.19;10629266;27;20051;-54
2023/01/10 06:02:47;;;;;;;1.98;0.63;;;;;;;19.02;54.13;96573.84;10629727;27;20047;-54
2023/01/10 06:08:06;;;;;;;1.55;0.70;;;;;;;19.01;53.94;96591.94;10628681;27;20043;-53
2023/01/10 06:13:26;;;;;;;1.17;0.52;;;;;;;19.03;53.95;96602.41;10628993;27;20066;-54
2023/01/10 06:18:45;;;;;;;2.25;0.90;;;;;;;19.03;53.75;96616.69;10628945;27;20379;-54
2023/01/10 06:24:05;;;;;;;5.60;1.17;;;;;;;19.04;53.77;96621.00;10628915;27;20051;-54
2023/01/10 06:29:25;;;;;;;5.72;1.75;;;;;;;19.06;53.78;96632.25;10627880;27;20062;-53
2023/01/10 06:34:44;;;;;;;4.05;1.60;;;;;;;19.07;53.76;96638.44;10628264;27;20059;-54
2023/01/10 06:40:04;;;;;;;5.28;1.50;;;;;;;19.08;53.44;96650.84;10642009;27;20047;-53
2023/01/10 06:45:24;;;;;;;6.18;1.50;;;;;;;19.08;53.41;96651.63;10627374;27;20101;-53
2023/01/10 06:50:43;;;;;;;5.28;1.38;;;;;;;19.10;53.44;96667.50;10627593;27;20105;-53
2023/01/10 06:56:04;;;;;;;4.97;1.50;;;;;;;19.11;53.27;96677.19;10641331;27;20043;-54
2023/01/10 07:01:24;;;;;;;5.93;1.33;;;;;;;19.12;53.23;96684.97;10626701;27;20422;-53
2023/01/10 07:06:44;;;;;;;3.10;1.60;;;;;;;19.13;53.13;96685.75;10627095;27;20051;-53
2023/01/10 07:12:04;;;;;;;4.47;1.50;;;;;;;19.13;53.11;96702.75;10626499;27;20051;-54
2023/01/10 07:17:23;;;;;;;4.40;1.40;;;;;;;19.16;53.15;96712.91;10626774;27;20054;-54
2023/01/10 07:22:42;;;;;;;2.78;1.20;;;;;;;19.16;53.03;96712.91;10626472;27;20051;-53
2023/01/10 07:28:04;;;;;;;4.93;1.50;;;;;;;19.17;53.02;96722.59;10625755;27;20054;-54
2023/01/10 07:33:23;;;;;;;2.75;1.50;;;;;;;19.19;52.98;96734.97;10626071;27;20051;-54
2023/01/10 07:38:42;;;;;;;4.63;1.45;;;;;;;19.20;52.94;96742.75;10625414;27;20051;-53
2023/01/10 07:44:02;;;;;;;2.60;1.30;;;;;;;19.23;52.93;96768.31;10625327;27;20066;-52
2023/01/10 07:49:22;;;;;;;3.05;1.38;;;;;;;19.23;52.83;96763.72;10624764;27;20483;-54
2023/01/10 07:54:42;;;;;;;5.53;1.65;;;;;;;19.25;52.85;96763.38;10624469;27;20066;-54
2023/01/10 08:00:02;;;;;;;3.33;1.20;;;;;;;19.27;52.97;96766.59;10625134;27;20105;-54
2023/01/10 08:05:24;;;;;;;3.80;1.27;;;;;;;19.28;52.73;96771.66;10624110;27;20055;-53
2023/01/10 08:10:43;;;;;;;3.08;1.40;;;;;;;19.30;52.81;96774.03;10624030;27;20057;-53
2023/01/10 08:16:05;;;;;;;2.50;1.17;;;;;;;19.30;52.81;96774.81;10609142;27;20051;-53
2023/01/10 08:21:24;;;;;;;2.42;1.05;;;;;;;19.33;52.84;96781.50;10624550;27;20047;-54
2023/01/10 08:26:44;;;;;;;3.45;1.10;;;;;;;19.34;52.82;96804.69;10623496;27;20548;-54
2023/01/10 08:32:03;;;;;;;2.50;1.05;;;;;;;19.35;52.67;96804.38;10623976;27;20104;-54
2023/01/10 08:37:23;;;;;;;4.20;1.42;;;;;;;19.37;52.67;96817.56;10624043;27;20051;-53
2023/01/10 08:42:42;;;;;;;3.50;1.20;;;;;;;19.38;52.58;96821.81;10632270;27;20055;-54
2023/01/10 08:48:06;;;;;;;1.70;1.10;;;;;;;19.40;52.49;96825.00;10632100;27;20545;-53
2023/01/10 08:53:30;;;;;;;1.83;1.05;;;;;;;19.42;52.56;96838.97;10632578;27;20100;-54
2023/01/10 08:58:50;;;;;;;1.90;1.13;;;;;;;19.43;52.49;96840.56;10632216;27;20046;-54
2023/01/10 09:04:09;;;;;;;2.05;1.00;;;;;;;19.45;52.44;96849.16;10616527;27;20058;-54
2023/01/10 09:09:28;;;;;;;2.30;1.02;;;;;;;19.46;50.67;96864.22;10631165;27;20047;-54
2023/01/10 09:14:48;;;;;;;2.10;1.20;;;;;;;19.49;51.63;96874.41;10631402;27;20051;-52
2023/01/10 09:20:10;;;;;;;1.80;0.90;;;;;;;19.51;52.01;96880.28;10645143;27;20552;-54
2023/01/10 09:25:29;;;;;;;3.08;1.20;;;;;;;19.53;52.03;96893.47;10630514;27;20077;-53
2023/01/10 09:30:49;;;;;;;2.35;1.00;;;;;;;19.55;52.23;96910.16;10644471;27;20058;-53
2023/01/10 09:36:10;;;;;;;3.47;1.10;;;;;;;19.55;52.20;96919.06;10644474;27;20043;-50
2023/01/10 09:41:48;;;;;;;2.45;1.00;;;;;;;19.58;52.18;96924.94;10630434;27;20429;-53
2023/01/10 09:47:23;;;;;;;1.98;1.00;;;;;;;19.59;52.13;96926.53;10629518;27;20516;-54
2023/01/10 09:52:47;;;;;;;2.08;0.90;;;;;;;19.61;52.22;96930.50;10629525;27;20047;-52
2023/01/10 09:58:11;;;;;;;2.28;1.00;;;;;;;19.63;52.00;96933.66;10629991;27;20051;-54
2023/01/10 10:03:52;;;;;;;1.60;0.98;;;;;;;19.62;51.74;96928.56;10629537;27;20073;-54
2023/01/10 10:09:15;;;;;;;2.08;1.05;;;;;;;19.63;51.76;96927.47;10628877;27;20074;-53
2023/01/10 10:14:59;;;;;;;1.13;0.80;;;;;;;19.64;51.73;96937.97;10629060;27;20108;-54
2023/01/10 10:20:45;;;;;;;1.17;0.80;;;;;;;19.65;51.81;96946.88;10629039;27;20056;-54
2023/01/10 10:26:17;;;;;;;2.13;0.93;;;;;;;19.63;51.99;96938.28;10628680;27;20077;-53
2023/01/10 10:31:46;;;;;;;2.05;1.00;;;;;;;19.64;51.80;96943.38;10627717;27;20553;-53
2023/01/10 10:37:14;;;;;;;2.03;0.90;;;;;;;19.65;52.08;96936.06;10627533;27;20443;-53
2023/01/10 10:42:37;;;;;;;2.78;0.75;;;;;;;19.66;52.19;96961.94;10627204;27;20517;-53
2023/01/10 10:48:27;;;;;;;1.83;0.90;;;;;;;19.66;52.31;96970.06;10612187;27;20059;-53
2023/01/10 10:53:47;;;;;;;2.65;0.90;;;;;;;19.67;52.07;96971.66;10612144;27;20074;-51
2023/01/10 10:59:07;;;;;;;5.78;1.88;;;;;;;19.67;52.44;96963.56;10627511;27;20047;-53
2023/01/10 11:04:27;;;;;;;12.52;4.25;;;;;;;19.69;52.37;96958.63;10610736;27;20055;-53
2023/01/10 11:15:34;;;;;;;15.52;4.32;;;;;;;19.73;55.31;96970.41;10626745;27;20069;-55
2023/01/10 11:20:57;;;;;;;11.13;4.07;;;;;;;19.74;55.32;96985.53;10626433;27;20051;-58
2023/01/10 11:26:35;;;;;;;8.25;3.40;;;;;;;19.75;55.09;96987.09;10625718;27;20047;-58
2023/01/10 11:31:55;;;;;;;;;;;;;;;-146.19;100.00;65364.44;10625876;27;20051;-62
2023/01/10 11:37:27;;;;;;;6.20;2.70;;;;;;;-146.19;100.00;65364.44;10625597;27;19930;-67
2023/01/10 11:42:47;;;;;;;7.20;2.58;;;;;;;-146.19;100.00;65364.44;10625332;27;20082;-55
2023/01/10 11:48:22;;;;;;;9.45;2.63;;;;;;;-146.19;100.00;65364.44;10625371;27;20414;-56
2023/01/10 11:53:42;;;;;;;7.40;2.60;;;;;;;-146.19;100.00;65364.44;10625248;27;20108;-60
2023/01/10 11:59:11;;;;;;;5.07;2.13;;;;;;;-146.19;100.00;65364.44;10608916;27;20126;-54
2023/01/10 12:04:33;;;;;;;6.60;2.07;;;;;;;-146.19;100.00;65364.44;10624967;27;20051;-54
2023/01/10 12:10:00;;;;;;;5.72;2.08;;;;;;;-146.19;100.00;65364.44;10624286;27;20047;-55
2023/01/10 12:15:26;;;;;;;4.90;2.20;;;;;;;-146.19;100.00;65364.44;10624294;27;20104;-54
2023/01/10 12:20:51;;;;;;;5.55;2.05;;;;;;;-146.19;100.00;65364.44;10624334;27;20051;-55
2023/01/10 12:26:14;;;;;;;3.05;1.70;;;;;;;-146.19;100.00;65364.44;10624254;27;20066;-53
2023/01/10 12:31:34;;;;;;;4.10;1.92;;;;;;;-146.19;100.00;65364.44;10624112;27;20051;-54
2023/01/10 12:36:59;;;;;;;5.57;1.90;;;;;;;-146.19;100.00;65364.44;10608566;27;20062;-55
2023/01/10 12:48:34;;;;;;;5.97;2.03;;;;;;;-146.19;100.00;65364.44;10608780;28;20051;-55
2023/01/10 12:54:04;;;;;;;4.47;1.83;;;;;;;-146.19;100.00;65364.44;10637329;27;20046;-55
2023/01/10 12:59:36;;;;;;;6.20;2.00;;;;;;;-146.19;100.00;65364.44;10622620;28;20051;-56
2023/01/10 13:04:58;;;;;;;4.03;1.52;;;;;;;-146.19;100.00;65364.44;10607754;28;20059;-55
2023/01/10 13:10:20;;;;;;;5.43;1.77;;;;;;;-146.19;100.00;65364.44;10622738;28;20062;-54
2023/01/10 13:15:50;;;;;;;3.65;1.70;;;;;;;-146.19;100.00;65364.44;10623233;28;20070;-55
2023/01/10 13:21:13;;;;;;;2.70;1.48;;;;;;;-146.19;100.00;65364.44;10607790;28;20047;-55
2023/01/10 13:26:44;;;;;;;4.82;1.75;;;;;;;-146.19;100.00;65364.44;10641105;27;20054;-55
2023/01/10 13:32:21;;;;;;;2.10;1.45;;;;;;;-146.19;100.00;65364.44;10630588;27;20047;-55
2023/01/10 13:37:43;;;;;;;4.53;1.75;;;;;;;-146.19;100.00;65364.44;10615302;27;20080;-54
2023/01/10 13:43:32;;;;;;;4.15;1.42;;;;;;;-146.19;100.00;65364.44;10630186;27;20407;-54
2023/01/10 13:48:51;;;;;;;3.08;1.30;;;;;;;-146.19;100.00;65364.44;10630086;27;20424;-54
2023/01/10 13:54:17;;;;;;;3.75;1.75;;;;;;;-146.19;100.00;65364.44;10643918;27;20043;-55
2023/01/10 14:05:18;;;;;;;3.95;1.52;;;;;;;-146.19;100.00;65364.44;10629904;27;20055;-54
2023/01/10 14:10:37;;;;;;;2.90;1.30;;;;;;;-146.19;100.00;65364.44;10613726;27;20047;-55
2023/01/10 14:15:57;;;;;;;2.38;1.35;;;;;;;-146.19;100.00;65364.44;10629177;27;20055;-55
2023/01/10 14:21:40;;;;;;;3.25;1.40;;;;;;;-146.19;100.00;65364.44;10613767;27;20104;-55
2023/01/10 14:27:01;;;;;;;1.98;1.20;;;;;;;-146.19;100.00;65364.44;10612396;27;20479;-54
2023/01/10 14:32:42;;;;;;;2.70;1.25;;;;;;;-146.19;100.00;65364.44;10612726;27;20051;-54
2023/01/10 14:38:03;;;;;;;1.95;1.20;;;;;;;-146.19;100.00;65364.44;10627259;27;20054;-54
2023/01/10 14:43:26;;;;;;;2.78;1.30;;;;;;;-146.19;100.00;65364.44;10627686;27;20063;-54
2023/01/10 14:48:47;;;;;;;3.40;1.10;;;;;;;-146.19;100.00;65364.44;10625940;27;20487;-54
2023/01/10 14:54:12;;;;;;;2.80;1.50;;;;;;;-146.19;100.00;65364.44;10627935;27;20051;-54
2023/01/10 14:59:34;;;;;;;3.40;1.25;;;;;;;-146.19;100.00;65364.44;10641266;27;20051;-59
2023/01/10 15:05:08;;;;;;;2.15;1.13;;;;;;;-146.19;100.00;65364.44;10626480;27;20510;-58
2023/01/10 15:10:40;;;;;;;2.13;1.00;;;;;;;19.56;53.01;97174.69;10626575;27;20047;-54
2023/01/10 15:16:00;;;;;;;2.53;1.20;;;;;;;19.56;52.87;97195.47;10626802;27;20078;-52
2023/01/10 15:21:21;;;;;;;3.00;1.15;;;;;;;19.54;53.06;97190.41;10640312;27;20043;-54
2023/01/10 15:26:40;;;;;;;2.60;1.27;;;;;;;19.53;53.32;97196.91;10610377;27;20495;-52
2023/01/10 15:32:28;;;;;;;2.58;0.85;;;;;;;19.52;53.40;97214.25;10625597;27;20518;-54
2023/01/10 15:37:53;;;;;;;2.83;1.10;;;;;;;19.51;53.88;97223.44;10625560;27;20077;-53
2023/01/10 15:43:16;;;;;;;2.17;1.35;;;;;;;19.50;52.92;97208.38;10610194;27;20054;-55
2023/01/10 15:48:42;;;;;;;5.25;1.00;;;;;;;-146.19;100.00;65364.44;10625103;27;20383;-55
2023/01/10 15:54:03;;;;;;;2.90;1.08;;;;;;;-146.19;100.00;65364.44;10610173;27;20160;-57
2023/01/10 15:59:40;;;;;;;1.73;1.10;;;;;;;-146.19;100.00;65364.44;10638686;27;20487;-46
2023/01/10 16:05:08;;;;;;;2.25;1.05;;;;;;;-146.19;100.00;65364.44;10609585;27;20078;-59
2023/01/10 16:10:28;;;;;;;2.42;1.08;;;;;;;-146.19;100.00;65364.44;10624778;27;20051;-57
2023/01/10 16:15:47;;;;;;;1.77;0.90;;;;;;;-146.19;100.00;65364.44;10624560;27;20051;-44
2023/01/10 16:21:09;;;;;;;1.85;1.33;;;;;;;-146.19;100.00;65364.44;10624427;27;20398;-45
2023/01/10 16:26:29;;;;;;;1.60;1.05;;;;;;;-146.19;100.00;65364.44;10624286;27;20104;-45
2023/01/10 16:31:50;;;;;;;2.25;1.10;;;;;;;-146.19;100.00;65364.44;10624104;27;20051;-45
2023/01/10 16:37:10;;;;;;;1.98;1.30;;;;;;;-146.19;100.00;65364.44;10624183;27;20096;-45
2023/01/10 16:48:08;;;;;;;1.90;1.00;;;;;;;-146.19;100.00;65364.44;10623186;28;20055;-44
2023/01/10 16:53:27;;;;;;;2.05;1.55;;;;;;;-146.19;100.00;65364.44;10623108;28;20051;-44
2023/01/10 16:58:48;;;;;;;1.63;1.20;;;;;;;-146.19;100.00;65364.44;10622723;27;20051;-44
2023/01/10 17:04:09;;;;;;;3.08;1.65;;;;;;;-146.19;100.00;65364.44;10645789;27;20502;-44
2023/01/10 17:09:29;;;;;;;1.70;1.20;;;;;;;-146.19;100.00;65364.44;10616355;27;20047;-45
2023/01/10 17:14:49;;;;;;;2.85;1.13;;;;;;;-146.19;100.00;65364.44;10630866;27;20062;-58
2023/01/10 17:20:14;;;;;;;2.33;1.63;;;;;;;-146.19;100.00;65364.44;10631443;27;20111;-55
2023/01/10 17:25:33;;;;;;;2.42;1.60;;;;;;;-146.19;100.00;65364.44;10614744;27;20188;-56
2023/01/10 17:30:53;;;;;;;2.58;1.65;;;;;;;19.50;52.92;97208.38;10630776;27;20055;-55
2023/01/10 17:36:12;;;;;;;3.70;1.70;;;;;;;-146.19;100.00;65364.44;10630723;27;20096;-52
2023/01/10 17:41:32;;;;;;;4.60;1.40;;;;;;;-146.19;100.00;65364.44;10614435;27;20047;-54
2023/01/10 17:46:53;;;;;;;2.58;1.42;;;;;;;-146.19;100.00;65364.44;10629465;27;20059;-59
2023/01/10 17:52:13;;;;;;;2.60;1.48;;;;;;;-146.19;100.00;65364.44;10629084;27;20047;-47
2023/01/10 17:57:36;;;;;;;2.30;1.30;;;;;;;-146.19;100.00;65364.44;10613404;27;20047;-58
2023/01/10 18:02:56;;;;;;;2.25;1.55;;;;;;;-146.19;100.00;65364.44;10628196;27;20043;-58
2023/01/10 18:08:16;;;;;;;3.30;1.40;;;;;;;-146.19;100.00;65364.44;10628707;27;20129;-58
2023/01/10 18:13:36;;;;;;;4.05;1.42;;;;;;;-146.19;100.00;65364.44;10627435;27;20104;-59
2023/01/10 18:18:55;;;;;;;2.83;1.38;;;;;;;-146.19;100.00;65364.44;10627960;27;20058;-58
2023/01/10 18:24:15;;;;;;;2.17;1.40;;;;;;;-146.19;100.00;65364.44;10627899;27;20104;-57
2023/01/10 18:29:35;;;;;;;2.25;1.27;;;;;;;-146.19;100.00;65364.44;10627286;27;20065;-55
2023/01/10 18:34:54;;;;;;;1.77;1.15;;;;;;;-146.19;100.00;65364.44;10641846;27;20509;-56
2023/01/10 18:40:16;;;;;;;1.63;1.17;;;;;;;-146.19;100.00;65364.44;10627910;27;20120;-55
2023/01/10 18:45:35;;;;;;;1.30;1.20;;;;;;;-146.19;100.00;65364.44;10627184;27;20055;-57
2023/01/10 18:50:57;;;;;;;1.70;1.13;;;;;;;-146.19;100.00;65364.44;10641288;27;20050;-58
2023/01/10 18:56:16;;;;;;;1.98;1.15;;;;;;;-146.19;100.00;65364.44;10627668;27;20047;-58
2023/01/10 19:01:36;;;;;;;2.25;1.35;;;;;;;-146.19;100.00;65364.44;10641040;27;20487;-61
2023/01/10 19:06:56;;;;;;;2.15;1.25;;;;;;;-146.19;100.00;65364.44;10640900;27;20575;-61
2023/01/10 19:12:15;;;;;;;2.00;1.23;;;;;;;-146.19;100.00;65364.44;10639334;27;20050;-59
2023/01/10 19:17:34;;;;;;;2.13;1.20;;;;;;;-146.19;100.00;65364.44;10625478;27;20073;-59
2023/01/10 19:22:54;;;;;;;2.10;1.23;;;;;;;-146.19;100.00;65364.44;10624497;27;20053;-59
2023/01/10 19:28:13;;;;;;;2.17;1.17;;;;;;;-146.19;100.00;65364.44;10625890;27;20055;-59
2023/01/10 19:33:33;;;;;;;2.28;1.27;;;;;;;-146.19;100.00;65364.44;10625391;27;20503;-60
2023/01/10 19:38:57;;;;;;;3.15;1.15;;;;;;;-146.19;100.00;65364.44;10625979;27;20043;-59
2023/01/10 19:44:17;;;;;;;2.85;1.00;;;;;;;-146.19;100.00;65364.44;10625129;27;20051;-59
2023/01/10 19:49:36;;;;;;;1.55;1.08;;;;;;;-146.19;100.00;65364.44;10625356;27;20054;-47
2023/01/10 19:54:56;;;;;;;3.03;1.30;;;;;;;-146.19;100.00;65364.44;10625465;27;20055;-47
2023/01/10 20:00:16;;;;;;;3.72;1.20;;;;;;;-146.19;100.00;65364.44;10624270;27;20051;-56
2023/01/10 20:05:36;;;;;;;1.20;0.90;;;;;;;-146.19;100.00;65364.44;10637164;27;20430;-46
2023/01/10 20:10:57;;;;;;;1.50;1.00;;;;;;;-146.19;100.00;65364.44;10607399;27;20537;-46
2023/01/10 20:16:19;;;;;;;3.35;1.20;;;;;;;-146.19;100.00;65364.44;10637056;27;20039;-46
2023/01/10 20:21:40;;;;;;;2.15;1.17;;;;;;;-146.19;100.00;65364.44;10623383;27;20107;-46
2023/01/10 20:27:03;;;;;;;14.98;1.45;;;;;;;-146.19;100.00;65364.44;10637937;27;20035;-46
2023/01/10 20:32:23;;;;;;;2.13;1.27;;;;;;;-146.19;100.00;65364.44;10623350;27;20115;-47
2023/01/10 20:37:43;;;;;;;2.38;1.17;;;;;;;-146.19;100.00;65364.44;10622063;27;20050;-46
2023/01/10 20:43:02;;;;;;;3.55;1.10;;;;;;;-146.19;100.00;65364.44;10622535;28;20051;-46
2023/01/10 20:48:22;;;;;;;1.67;0.95;;;;;;;-146.19;100.00;65364.44;10622670;28;20050;-47
2023/01/10 20:53:43;;;;;;;1.70;1.02;;;;;;;-146.19;100.00;65364.44;10637198;27;20040;-48
2023/01/10 20:59:04;;;;;;;2.03;0.90;;;;;;;-146.19;100.00;65364.44;10622562;28;20043;-50
2023/01/10 21:04:23;;;;;;;2.25;1.00;;;;;;;-146.19;100.00;65364.44;10637275;27;20044;-51
2023/01/10 21:09:44;;;;;;;2.65;1.20;;;;;;;-146.19;100.00;65364.44;10637054;27;20088;-49
2023/01/10 21:15:06;;;;;;;1.95;1.15;;;;;;;-146.19;100.00;65364.44;10622600;28;20055;-50
2023/01/10 21:20:26;;;;;;;2.85;1.05;;;;;;;-146.19;100.00;65364.44;10623266;28;20440;-47
2023/01/10 21:25:47;;;;;;;3.15;1.55;;;;;;;-146.19;100.00;65364.44;10623226;28;20058;-49
2023/01/10 21:31:09;;;;;;;6.57;1.80;;;;;;;-146.19;100.00;65364.44;10622999;28;20047;-47
2023/01/10 21:36:29;;;;;;;7.03;2.10;;;;;;;-146.19;100.00;65364.44;10623029;28;20051;-49
2023/01/10 21:47:27;;;;;;;9.48;3.00;;;;;;;-146.19;100.00;65364.44;10625900;27;20055;-46
2023/01/10 21:52:47;;;;;;;10.70;3.00;;;;;;;-146.19;100.00;65364.44;10630202;27;20047;-48
2023/01/10 21:58:06;;;;;;;9.05;2.80;;;;;;;-146.19;100.00;65364.44;10643824;27;20580;-49
2023/01/10 22:03:25;;;;;;;9.10;2.55;;;;;;;-146.19;100.00;65364.44;10613754;27;20104;-47
2023/01/10 22:08:45;;;;;;;7.85;2.78;;;;;;;-146.19;100.00;65364.44;10629733;27;20468;-47
2023/01/10 22:14:05;;;;;;;6.80;2.50;;;;;;;-146.19;100.00;65364.44;10643266;27;20043;-48
2023/01/10 22:19:24;;;;;;;9.10;3.00;;;;;;;-146.19;100.00;65364.44;10629421;27;20058;-49
2023/01/10 22:24:46;;;;;;;6.40;2.47;;;;;;;-146.19;100.00;65364.44;10629075;27;20053;-48
2023/01/10 22:30:06;;;;;;;8.52;2.58;;;;;;;-146.19;100.00;65364.44;10628733;27;20051;-49
2023/01/10 22:35:26;;;;;;;7.43;2.60;;;;;;;-146.19;100.00;65364.44;10628631;27;20055;-46
2023/01/10 22:40:45;;;;;;;7.60;2.50;;;;;;;-146.19;100.00;65364.44;10628556;27;20058;-48
2023/01/10 22:46:06;;;;;;;6.82;2.83;;;;;;;-146.19;100.00;65364.44;10632595;27;20051;-47
2023/01/10 22:51:27;;;;;;;5.55;2.58;;;;;;;-146.19;100.00;65364.44;10626227;27;20491;-48
2023/01/10 22:56:47;;;;;;;5.38;2.50;;;;;;;-146.19;100.00;65364.44;10626838;27;20051;-48
2023/01/10 23:02:06;;;;;;;5.50;2.05;;;;;;;-146.19;100.00;65364.44;10627509;27;20047;-48
2023/01/10 23:07:25;;;;;;;5.03;2.28;;;;;;;-146.19;100.00;65364.44;10627432;27;20108;-48
2023/01/10 23:12:45;;;;;;;6.78;2.30;;;;;;;-146.19;100.00;65364.44;10627137;27;20183;-46
2023/01/10 23:18:04;;;;;;;5.18;2.00;;;;;;;-146.19;100.00;65364.44;10626290;27;20494;-47
2023/01/10 23:23:25;;;;;;;4.55;2.00;;;;;;;-146.19;100.00;65364.44;10626706;27;20103;-47
2023/01/10 23:28:47;;;;;;;4.47;1.70;;;;;;;-146.19;100.00;65364.44;10625742;27;20499;-48
2023/01/10 23:34:06;;;;;;;4.95;2.05;;;;;;;-146.19;100.00;65364.44;10626298;27;20159;-48
2023/01/10 23:39:25;;;;;;;4.70;1.90;;;;;;;-146.19;100.00;65364.44;10639711;27;20414;-50
2023/01/10 23:44:45;;;;;;;3.83;2.00;;;;;;;-146.19;100.00;65364.44;10624915;27;20529;-49
2023/01/10 23:50:04;;;;;;;3.47;1.73;;;;;;;-146.19;100.00;65364.44;10623819;27;20043;-46
2023/01/10 23:55:24;;;;;;;3.30;1.65;;;;;;;-146.19;100.00;65364.44;10639019;27;20035;-46
